sensor_id;sensor_type;location;lat;lon;timestamp;P1;durP1;ratioP1;P2;durP2;ratioP2
80215;SDS011;69532;37.974;23.708;2023-04-23T00:01:04;7.28;;;4.50;;
80215;SDS011;69532;37.974;23.708;2023-04-23T00:03:31;8.15;;;4.68;;
80215;SDS011;69532;37.974;23.708;2023-04-23T00:05:58;8.27;;;4.93;;
80215;SDS011;69532;37.974;23.708;2023-04-23T00:08:27;8.60;;;4.75;;
80215;SDS011;69532;37.974;23.708;2023-04-23T00:10:54;7.78;;;5.05;;
80215;SDS011;69532;37.974;23.708;2023-04-23T00:13:20;7.60;;;4.55;;
80215;SDS011;69532;37.974;23.708;2023-04-23T00:15:46;7.13;;;4.40;;
80215;SDS011;69532;37.974;23.708;2023-04-23T00:18:12;7.18;;;3.95;;
80215;SDS011;69532;37.974;23.708;2023-04-23T00:20:40;7.13;;;4.13;;
80215;SDS011;69532;37.974;23.708;2023-04-23T00:23:07;6.75;;;4.03;;
80215;SDS011;69532;37.974;23.708;2023-04-23T00:25:33;6.93;;;3.97;;
80215;SDS011;69532;37.974;23.708;2023-04-23T00:27:58;7.15;;;4.05;;
80215;SDS011;69532;37.974;23.708;2023-04-23T00:30:24;7.40;;;4.10;;
80215;SDS011;69532;37.974;23.708;2023-04-23T00:32:50;7.20;;;3.97;;
80215;SDS011;69532;37.974;23.708;2023-04-23T00:35:16;7.13;;;4.05;;
80215;SDS011;69532;37.974;23.708;2023-04-23T00:37:42;7.13;;;4.00;;
80215;SDS011;69532;37.974;23.708;2023-04-23T00:40:08;7.30;;;4.05;;
80215;SDS011;69532;37.974;23.708;2023-04-23T00:42:36;7.25;;;3.70;;
80215;SDS011;69532;37.974;23.708;2023-04-23T00:45:03;7.25;;;4.32;;
80215;SDS011;69532;37.974;23.708;2023-04-23T00:47:30;7.57;;;4.28;;
80215;SDS011;69532;37.974;23.708;2023-04-23T00:49:58;7.13;;;4.07;;
80215;SDS011;69532;37.974;23.708;2023-04-23T00:52:24;7.32;;;4.03;;
80215;SDS011;69532;37.974;23.708;2023-04-23T00:54:50;7.15;;;3.90;;
80215;SDS011;69532;37.974;23.708;2023-04-23T00:57:16;6.28;;;4.03;;
80215;SDS011;69532;37.974;23.708;2023-04-23T00:59:43;8.00;;;4.18;;
80215;SDS011;69532;37.974;23.708;2023-04-23T01:02:09;6.68;;;3.53;;
80215;SDS011;69532;37.974;23.708;2023-04-23T01:04:35;6.95;;;4.10;;
80215;SDS011;69532;37.974;23.708;2023-04-23T01:07:02;8.05;;;4.20;;
80215;SDS011;69532;37.974;23.708;2023-04-23T01:09:28;7.28;;;4.18;;
80215;SDS011;69532;37.974;23.708;2023-04-23T01:11:56;7.72;;;4.22;;
80215;SDS011;69532;37.974;23.708;2023-04-23T01:14:22;7.30;;;4.00;;
80215;SDS011;69532;37.974;23.708;2023-04-23T01:16:48;7.53;;;3.97;;
80215;SDS011;69532;37.974;23.708;2023-04-23T01:19:14;8.63;;;4.07;;
80215;SDS011;69532;37.974;23.708;2023-04-23T01:21:40;7.32;;;4.05;;
80215;SDS011;69532;37.974;23.708;2023-04-23T01:24:07;8.02;;;4.22;;
80215;SDS011;69532;37.974;23.708;2023-04-23T01:26:34;6.72;;;4.05;;
80215;SDS011;69532;37.974;23.708;2023-04-23T01:29:00;7.45;;;4.15;;
80215;SDS011;69532;37.974;23.708;2023-04-23T01:31:26;7.38;;;4.13;;
80215;SDS011;69532;37.974;23.708;2023-04-23T01:33:53;7.38;;;4.57;;
80215;SDS011;69532;37.974;23.708;2023-04-23T01:36:21;7.20;;;4.10;;
80215;SDS011;69532;37.974;23.708;2023-04-23T01:38:51;7.00;;;3.92;;
80215;SDS011;69532;37.974;23.708;2023-04-23T01:41:17;7.63;;;4.35;;
80215;SDS011;69532;37.974;23.708;2023-04-23T01:43:44;8.95;;;4.28;;
80215;SDS011;69532;37.974;23.708;2023-04-23T01:46:10;8.73;;;4.20;;
80215;SDS011;69532;37.974;23.708;2023-04-23T01:48:36;9.57;;;4.10;;
80215;SDS011;69532;37.974;23.708;2023-04-23T01:51:03;9.20;;;4.20;;
80215;SDS011;69532;37.974;23.708;2023-04-23T01:53:29;7.88;;;4.50;;
80215;SDS011;69532;37.974;23.708;2023-04-23T01:55:54;7.68;;;4.25;;
80215;SDS011;69532;37.974;23.708;2023-04-23T01:58:21;7.75;;;4.35;;
80215;SDS011;69532;37.974;23.708;2023-04-23T02:00:48;8.18;;;4.47;;
80215;SDS011;69532;37.974;23.708;2023-04-23T02:03:14;7.05;;;4.30;;
80215;SDS011;69532;37.974;23.708;2023-04-23T02:05:40;7.18;;;4.32;;
80215;SDS011;69532;37.974;23.708;2023-04-23T02:08:06;7.45;;;4.53;;
80215;SDS011;69532;37.974;23.708;2023-04-23T02:10:32;8.02;;;4.43;;
80215;SDS011;69532;37.974;23.708;2023-04-23T02:12:58;7.57;;;4.40;;
80215;SDS011;69532;37.974;23.708;2023-04-23T02:15:25;7.40;;;4.55;;
80215;SDS011;69532;37.974;23.708;2023-04-23T02:17:51;7.38;;;4.38;;
80215;SDS011;69532;37.974;23.708;2023-04-23T02:20:17;7.68;;;4.97;;
80215;SDS011;69532;37.974;23.708;2023-04-23T02:22:44;7.75;;;4.57;;
80215;SDS011;69532;37.974;23.708;2023-04-23T02:25:11;8.70;;;4.80;;
80215;SDS011;69532;37.974;23.708;2023-04-23T02:27:40;10.45;;;4.70;;
80215;SDS011;69532;37.974;23.708;2023-04-23T02:30:06;7.15;;;4.60;;
80215;SDS011;69532;37.974;23.708;2023-04-23T02:32:34;9.85;;;5.00;;
80215;SDS011;69532;37.974;23.708;2023-04-23T02:35:01;6.97;;;4.43;;
80215;SDS011;69532;37.974;23.708;2023-04-23T02:37:27;9.05;;;4.90;;
80215;SDS011;69532;37.974;23.708;2023-04-23T02:39:53;10.35;;;4.70;;
80215;SDS011;69532;37.974;23.708;2023-04-23T02:42:19;7.70;;;4.80;;
80215;SDS011;69532;37.974;23.708;2023-04-23T02:44:44;7.93;;;4.70;;
80215;SDS011;69532;37.974;23.708;2023-04-23T02:47:10;7.40;;;4.50;;
80215;SDS011;69532;37.974;23.708;2023-04-23T02:49:36;7.85;;;4.78;;
80215;SDS011;69532;37.974;23.708;2023-04-23T02:52:02;8.95;;;4.93;;
80215;SDS011;69532;37.974;23.708;2023-04-23T02:54:28;8.48;;;4.68;;
80215;SDS011;69532;37.974;23.708;2023-04-23T02:56:56;9.73;;;4.57;;
80215;SDS011;69532;37.974;23.708;2023-04-23T02:59:22;8.02;;;4.50;;
80215;SDS011;69532;37.974;23.708;2023-04-23T03:01:48;10.60;;;4.97;;
80215;SDS011;69532;37.974;23.708;2023-04-23T03:04:15;10.30;;;5.00;;
80215;SDS011;69532;37.974;23.708;2023-04-23T03:06:42;8.15;;;5.05;;
80215;SDS011;69532;37.974;23.708;2023-04-23T03:09:08;8.88;;;4.70;;
80215;SDS011;69532;37.974;23.708;2023-04-23T03:11:34;9.27;;;4.82;;
80215;SDS011;69532;37.974;23.708;2023-04-23T03:14:00;8.52;;;4.85;;
80215;SDS011;69532;37.974;23.708;2023-04-23T03:16:26;7.95;;;4.80;;
80215;SDS011;69532;37.974;23.708;2023-04-23T03:18:53;8.38;;;5.00;;
80215;SDS011;69532;37.974;23.708;2023-04-23T03:21:19;9.40;;;5.22;;
80215;SDS011;69532;37.974;23.708;2023-04-23T03:23:45;9.68;;;4.90;;
80215;SDS011;69532;37.974;23.708;2023-04-23T03:26:10;9.65;;;5.25;;
80215;SDS011;69532;37.974;23.708;2023-04-23T03:28:36;10.07;;;5.72;;
80215;SDS011;69532;37.974;23.708;2023-04-23T03:31:02;8.40;;;5.07;;
80215;SDS011;69532;37.974;23.708;2023-04-23T03:33:28;9.35;;;5.00;;
80215;SDS011;69532;37.974;23.708;2023-04-23T03:35:53;9.00;;;5.00;;
80215;SDS011;69532;37.974;23.708;2023-04-23T03:38:19;9.75;;;5.25;;
80215;SDS011;69532;37.974;23.708;2023-04-23T03:40:45;8.68;;;5.22;;
80215;SDS011;69532;37.974;23.708;2023-04-23T03:43:12;8.57;;;4.65;;
80215;SDS011;69532;37.974;23.708;2023-04-23T03:45:37;8.60;;;4.72;;
80215;SDS011;69532;37.974;23.708;2023-04-23T03:48:03;7.95;;;4.53;;
80215;SDS011;69532;37.974;23.708;2023-04-23T03:50:29;8.73;;;4.32;;
80215;SDS011;69532;37.974;23.708;2023-04-23T03:52:58;8.45;;;4.95;;
80215;SDS011;69532;37.974;23.708;2023-04-23T03:55:24;9.75;;;4.80;;
80215;SDS011;69532;37.974;23.708;2023-04-23T03:57:50;8.95;;;4.85;;
80215;SDS011;69532;37.974;23.708;2023-04-23T04:00:15;9.50;;;4.68;;
80215;SDS011;69532;37.974;23.708;2023-04-23T04:02:41;7.78;;;4.40;;
80215;SDS011;69532;37.974;23.708;2023-04-23T04:05:07;7.82;;;4.10;;
80215;SDS011;69532;37.974;23.708;2023-04-23T04:07:35;7.95;;;4.50;;
80215;SDS011;69532;37.974;23.708;2023-04-23T04:10:01;7.85;;;4.40;;
80215;SDS011;69532;37.974;23.708;2023-04-23T04:12:28;7.97;;;4.10;;
80215;SDS011;69532;37.974;23.708;2023-04-23T04:14:53;7.15;;;4.45;;
80215;SDS011;69532;37.974;23.708;2023-04-23T04:17:20;7.18;;;4.30;;
80215;SDS011;69532;37.974;23.708;2023-04-23T04:19:45;9.13;;;4.63;;
80215;SDS011;69532;37.974;23.708;2023-04-23T04:22:11;6.47;;;4.15;;
80215;SDS011;69532;37.974;23.708;2023-04-23T04:24:37;8.20;;;4.43;;
80215;SDS011;69532;37.974;23.708;2023-04-23T04:27:03;7.15;;;3.97;;
80215;SDS011;69532;37.974;23.708;2023-04-23T04:29:29;9.10;;;4.20;;
80215;SDS011;69532;37.974;23.708;2023-04-23T04:31:56;10.60;;;3.97;;
80215;SDS011;69532;37.974;23.708;2023-04-23T04:34:22;6.50;;;3.78;;
80215;SDS011;69532;37.974;23.708;2023-04-23T04:36:48;7.35;;;4.15;;
80215;SDS011;69532;37.974;23.708;2023-04-23T04:39:15;8.10;;;3.80;;
80215;SDS011;69532;37.974;23.708;2023-04-23T04:41:41;7.68;;;3.85;;
80215;SDS011;69532;37.974;23.708;2023-04-23T04:44:07;6.60;;;3.42;;
80215;SDS011;69532;37.974;23.708;2023-04-23T04:46:33;7.47;;;3.70;;
80215;SDS011;69532;37.974;23.708;2023-04-23T04:49:06;9.32;;;4.00;;
80215;SDS011;69532;37.974;23.708;2023-04-23T04:51:32;10.05;;;3.65;;
80215;SDS011;69532;37.974;23.708;2023-04-23T04:53:58;8.23;;;3.90;;
80215;SDS011;69532;37.974;23.708;2023-04-23T04:56:24;7.43;;;3.60;;
80215;SDS011;69532;37.974;23.708;2023-04-23T04:58:50;7.32;;;3.50;;
80215;SDS011;69532;37.974;23.708;2023-04-23T05:01:16;8.10;;;3.53;;
80215;SDS011;69532;37.974;23.708;2023-04-23T05:03:42;9.32;;;3.70;;
80215;SDS011;69532;37.974;23.708;2023-04-23T05:06:08;8.25;;;3.33;;
80215;SDS011;69532;37.974;23.708;2023-04-23T05:08:34;7.20;;;3.60;;
80215;SDS011;69532;37.974;23.708;2023-04-23T05:11:00;8.27;;;3.72;;
80215;SDS011;69532;37.974;23.708;2023-04-23T05:13:27;8.05;;;3.60;;
80215;SDS011;69532;37.974;23.708;2023-04-23T05:15:53;7.70;;;3.60;;
80215;SDS011;69532;37.974;23.708;2023-04-23T05:18:19;7.82;;;3.50;;
80215;SDS011;69532;37.974;23.708;2023-04-23T05:20:45;6.88;;;3.40;;
80215;SDS011;69532;37.974;23.708;2023-04-23T05:23:11;6.25;;;3.58;;
80215;SDS011;69532;37.974;23.708;2023-04-23T05:25:37;7.47;;;3.55;;
80215;SDS011;69532;37.974;23.708;2023-04-23T05:28:02;6.47;;;3.70;;
80215;SDS011;69532;37.974;23.708;2023-04-23T05:30:28;7.85;;;3.70;;
80215;SDS011;69532;37.974;23.708;2023-04-23T05:32:54;6.63;;;3.85;;
80215;SDS011;69532;37.974;23.708;2023-04-23T05:35:20;6.28;;;3.47;;
80215;SDS011;69532;37.974;23.708;2023-04-23T05:37:46;6.55;;;3.72;;
80215;SDS011;69532;37.974;23.708;2023-04-23T05:40:11;6.18;;;3.42;;
80215;SDS011;69532;37.974;23.708;2023-04-23T05:42:37;6.40;;;3.83;;
80215;SDS011;69532;37.974;23.708;2023-04-23T05:45:03;6.60;;;3.17;;
80215;SDS011;69532;37.974;23.708;2023-04-23T05:47:29;5.40;;;3.28;;
80215;SDS011;69532;37.974;23.708;2023-04-23T05:49:55;7.15;;;3.35;;
80215;SDS011;69532;37.974;23.708;2023-04-23T05:52:25;6.53;;;3.13;;
80215;SDS011;69532;37.974;23.708;2023-04-23T05:54:51;6.60;;;3.47;;
80215;SDS011;69532;37.974;23.708;2023-04-23T05:57:17;5.60;;;3.40;;
80215;SDS011;69532;37.974;23.708;2023-04-23T05:59:43;5.70;;;3.53;;
80215;SDS011;69532;37.974;23.708;2023-04-23T06:02:09;6.45;;;3.60;;
80215;SDS011;69532;37.974;23.708;2023-04-23T06:04:35;6.75;;;3.42;;
80215;SDS011;69532;37.974;23.708;2023-04-23T06:07:01;7.82;;;3.92;;
80215;SDS011;69532;37.974;23.708;2023-04-23T06:09:27;6.32;;;3.55;;
80215;SDS011;69532;37.974;23.708;2023-04-23T06:11:53;5.93;;;3.28;;
80215;SDS011;69532;37.974;23.708;2023-04-23T06:14:19;6.25;;;3.60;;
80215;SDS011;69532;37.974;23.708;2023-04-23T06:16:45;6.85;;;3.65;;
80215;SDS011;69532;37.974;23.708;2023-04-23T06:19:11;6.95;;;3.88;;
80215;SDS011;69532;37.974;23.708;2023-04-23T06:21:36;6.07;;;4.00;;
80215;SDS011;69532;37.974;23.708;2023-04-23T06:24:03;5.82;;;3.63;;
80215;SDS011;69532;37.974;23.708;2023-04-23T06:26:30;6.03;;;3.95;;
80215;SDS011;69532;37.974;23.708;2023-04-23T06:28:55;5.50;;;3.75;;
80215;SDS011;69532;37.974;23.708;2023-04-23T06:31:21;6.00;;;3.70;;
80215;SDS011;69532;37.974;23.708;2023-04-23T06:33:47;5.93;;;4.03;;
80215;SDS011;69532;37.974;23.708;2023-04-23T06:36:12;7.18;;;4.15;;
80215;SDS011;69532;37.974;23.708;2023-04-23T06:38:38;6.78;;;3.95;;
80215;SDS011;69532;37.974;23.708;2023-04-23T06:41:05;6.43;;;3.90;;
80215;SDS011;69532;37.974;23.708;2023-04-23T06:43:31;6.57;;;3.95;;
80215;SDS011;69532;37.974;23.708;2023-04-23T06:45:57;6.35;;;3.50;;
80215;SDS011;69532;37.974;23.708;2023-04-23T06:48:22;6.82;;;3.83;;
80215;SDS011;69532;37.974;23.708;2023-04-23T06:50:49;6.53;;;3.55;;
80215;SDS011;69532;37.974;23.708;2023-04-23T06:53:15;6.85;;;4.00;;
80215;SDS011;69532;37.974;23.708;2023-04-23T06:55:41;6.13;;;4.00;;
80215;SDS011;69532;37.974;23.708;2023-04-23T06:58:07;6.43;;;4.00;;
80215;SDS011;69532;37.974;23.708;2023-04-23T07:00:33;6.97;;;4.13;;
80215;SDS011;69532;37.974;23.708;2023-04-23T07:02:59;5.85;;;3.85;;
80215;SDS011;69532;37.974;23.708;2023-04-23T07:05:24;6.40;;;3.95;;
80215;SDS011;69532;37.974;23.708;2023-04-23T07:07:50;8.50;;;4.32;;
80215;SDS011;69532;37.974;23.708;2023-04-23T07:10:17;5.90;;;3.88;;
80215;SDS011;69532;37.974;23.708;2023-04-23T07:12:43;6.38;;;3.92;;
80215;SDS011;69532;37.974;23.708;2023-04-23T07:15:09;6.63;;;3.90;;
80215;SDS011;69532;37.974;23.708;2023-04-23T07:17:36;6.38;;;4.22;;
80215;SDS011;69532;37.974;23.708;2023-04-23T07:20:02;7.15;;;4.18;;
80215;SDS011;69532;37.974;23.708;2023-04-23T07:22:32;6.53;;;4.20;;
80215;SDS011;69532;37.974;23.708;2023-04-23T07:24:58;6.72;;;4.18;;
80215;SDS011;69532;37.974;23.708;2023-04-23T07:27:25;8.93;;;4.13;;
80215;SDS011;69532;37.974;23.708;2023-04-23T07:29:50;5.97;;;3.80;;
80215;SDS011;69532;37.974;23.708;2023-04-23T07:32:16;6.72;;;4.28;;
80215;SDS011;69532;37.974;23.708;2023-04-23T07:34:42;7.75;;;4.30;;
80215;SDS011;69532;37.974;23.708;2023-04-23T07:37:08;8.10;;;4.03;;
80215;SDS011;69532;37.974;23.708;2023-04-23T07:39:33;8.38;;;4.30;;
80215;SDS011;69532;37.974;23.708;2023-04-23T07:41:59;7.70;;;4.25;;
80215;SDS011;69532;37.974;23.708;2023-04-23T07:44:26;7.40;;;4.35;;
80215;SDS011;69532;37.974;23.708;2023-04-23T07:46:52;7.28;;;4.57;;
80215;SDS011;69532;37.974;23.708;2023-04-23T07:49:17;7.97;;;4.72;;
80215;SDS011;69532;37.974;23.708;2023-04-23T07:51:43;7.63;;;4.82;;
80215;SDS011;69532;37.974;23.708;2023-04-23T07:54:09;7.10;;;4.57;;
80215;SDS011;69532;37.974;23.708;2023-04-23T07:56:35;7.15;;;4.60;;
80215;SDS011;69532;37.974;23.708;2023-04-23T07:59:01;6.28;;;4.05;;
80215;SDS011;69532;37.974;23.708;2023-04-23T08:01:27;6.20;;;4.13;;
80215;SDS011;69532;37.974;23.708;2023-04-23T08:03:53;6.85;;;4.30;;
80215;SDS011;69532;37.974;23.708;2023-04-23T08:06:24;6.22;;;4.15;;
80215;SDS011;69532;37.974;23.708;2023-04-23T08:08:51;7.55;;;4.90;;
80215;SDS011;69532;37.974;23.708;2023-04-23T08:11:17;6.65;;;4.38;;
80215;SDS011;69532;37.974;23.708;2023-04-23T08:13:43;7.45;;;4.45;;
80215;SDS011;69532;37.974;23.708;2023-04-23T08:16:09;7.40;;;4.70;;
80215;SDS011;69532;37.974;23.708;2023-04-23T08:18:35;6.75;;;4.35;;
80215;SDS011;69532;37.974;23.708;2023-04-23T08:21:00;6.63;;;4.82;;
80215;SDS011;69532;37.974;23.708;2023-04-23T08:23:26;6.78;;;4.32;;
80215;SDS011;69532;37.974;23.708;2023-04-23T08:25:52;6.10;;;4.05;;
80215;SDS011;69532;37.974;23.708;2023-04-23T08:28:18;8.20;;;4.20;;
80215;SDS011;69532;37.974;23.708;2023-04-23T08:30:44;7.60;;;4.20;;
80215;SDS011;69532;37.974;23.708;2023-04-23T08:33:10;7.00;;;4.05;;
80215;SDS011;69532;37.974;23.708;2023-04-23T08:35:36;9.48;;;4.53;;
80215;SDS011;69532;37.974;23.708;2023-04-23T08:38:02;7.57;;;4.22;;
80215;SDS011;69532;37.974;23.708;2023-04-23T08:40:28;8.07;;;4.20;;
80215;SDS011;69532;37.974;23.708;2023-04-23T08:43:02;7.72;;;4.28;;
80215;SDS011;69532;37.974;23.708;2023-04-23T08:45:35;7.47;;;4.22;;
80215;SDS011;69532;37.974;23.708;2023-04-23T08:48:06;8.10;;;4.05;;
80215;SDS011;69532;37.974;23.708;2023-04-23T08:50:37;7.53;;;4.20;;
80215;SDS011;69532;37.974;23.708;2023-04-23T08:53:06;7.20;;;4.20;;
80215;SDS011;69532;37.974;23.708;2023-04-23T08:55:32;7.43;;;4.32;;
80215;SDS011;69532;37.974;23.708;2023-04-23T08:58:00;7.25;;;4.22;;
80215;SDS011;69532;37.974;23.708;2023-04-23T09:00:30;6.55;;;3.95;;
80215;SDS011;69532;37.974;23.708;2023-04-23T09:02:57;6.28;;;3.95;;
80215;SDS011;69532;37.974;23.708;2023-04-23T09:05:23;6.65;;;4.05;;
80215;SDS011;69532;37.974;23.708;2023-04-23T09:07:51;7.65;;;4.30;;
80215;SDS011;69532;37.974;23.708;2023-04-23T09:10:18;7.50;;;4.18;;
80215;SDS011;69532;37.974;23.708;2023-04-23T09:12:44;7.68;;;4.13;;
80215;SDS011;69532;37.974;23.708;2023-04-23T09:15:11;7.55;;;4.50;;
80215;SDS011;69532;37.974;23.708;2023-04-23T09:17:38;7.40;;;4.13;;
80215;SDS011;69532;37.974;23.708;2023-04-23T09:20:06;7.57;;;4.13;;
80215;SDS011;69532;37.974;23.708;2023-04-23T09:25:06;7.93;;;4.47;;
80215;SDS011;69532;37.974;23.708;2023-04-23T09:27:34;6.78;;;4.25;;
80215;SDS011;69532;37.974;23.708;2023-04-23T09:30:01;7.45;;;4.80;;
80215;SDS011;69532;37.974;23.708;2023-04-23T09:32:31;6.30;;;4.60;;
80215;SDS011;69532;37.974;23.708;2023-04-23T09:35:01;7.28;;;4.43;;
80215;SDS011;69532;37.974;23.708;2023-04-23T09:37:28;7.88;;;4.43;;
80215;SDS011;69532;37.974;23.708;2023-04-23T09:39:57;10.40;;;4.45;;
80215;SDS011;69532;37.974;23.708;2023-04-23T09:42:28;6.95;;;4.63;;
80215;SDS011;69532;37.974;23.708;2023-04-23T09:44:55;7.70;;;4.40;;
80215;SDS011;69532;37.974;23.708;2023-04-23T09:47:22;7.38;;;4.40;;
80215;SDS011;69532;37.974;23.708;2023-04-23T09:49:48;6.90;;;4.40;;
80215;SDS011;69532;37.974;23.708;2023-04-23T09:52:15;8.88;;;4.82;;
80215;SDS011;69532;37.974;23.708;2023-04-23T09:54:42;7.53;;;4.55;;
80215;SDS011;69532;37.974;23.708;2023-04-23T09:57:10;7.30;;;4.45;;
80215;SDS011;69532;37.974;23.708;2023-04-23T09:59:37;7.25;;;4.75;;
80215;SDS011;69532;37.974;23.708;2023-04-23T10:02:04;7.28;;;4.53;;
80215;SDS011;69532;37.974;23.708;2023-04-23T10:04:31;7.93;;;4.57;;
80215;SDS011;69532;37.974;23.708;2023-04-23T10:06:59;6.97;;;4.68;;
80215;SDS011;69532;37.974;23.708;2023-04-23T10:09:27;8.77;;;4.45;;
80215;SDS011;69532;37.974;23.708;2023-04-23T10:11:57;9.23;;;4.82;;
80215;SDS011;69532;37.974;23.708;2023-04-23T10:14:26;7.70;;;4.97;;
80215;SDS011;69532;37.974;23.708;2023-04-23T10:16:56;9.07;;;4.80;;
80215;SDS011;69532;37.974;23.708;2023-04-23T10:19:24;8.70;;;4.85;;
80215;SDS011;69532;37.974;23.708;2023-04-23T10:21:55;7.50;;;4.53;;
80215;SDS011;69532;37.974;23.708;2023-04-23T10:24:28;7.93;;;4.75;;
80215;SDS011;69532;37.974;23.708;2023-04-23T10:26:56;8.10;;;4.70;;
80215;SDS011;69532;37.974;23.708;2023-04-23T10:29:28;7.00;;;4.80;;
80215;SDS011;69532;37.974;23.708;2023-04-23T10:31:56;6.57;;;4.65;;
80215;SDS011;69532;37.974;23.708;2023-04-23T10:34:26;7.57;;;4.90;;
80215;SDS011;69532;37.974;23.708;2023-04-23T10:36:53;7.40;;;5.15;;
80215;SDS011;69532;37.974;23.708;2023-04-23T10:39:21;7.15;;;5.15;;
80215;SDS011;69532;37.974;23.708;2023-04-23T10:41:49;6.40;;;4.75;;
80215;SDS011;69532;37.974;23.708;2023-04-23T10:44:18;7.13;;;4.75;;
80215;SDS011;69532;37.974;23.708;2023-04-23T10:49:17;7.57;;;5.45;;
80215;SDS011;69532;37.974;23.708;2023-04-23T10:51:46;7.10;;;5.30;;
80215;SDS011;69532;37.974;23.708;2023-04-23T10:54:15;8.52;;;5.30;;
80215;SDS011;69532;37.974;23.708;2023-04-23T10:56:43;7.85;;;5.35;;
80215;SDS011;69532;37.974;23.708;2023-04-23T10:59:19;7.60;;;5.25;;
80215;SDS011;69532;37.974;23.708;2023-04-23T11:01:46;6.93;;;4.80;;
80215;SDS011;69532;37.974;23.708;2023-04-23T11:04:23;7.10;;;5.07;;
80215;SDS011;69532;37.974;23.708;2023-04-23T11:06:53;9.75;;;5.53;;
80215;SDS011;69532;37.974;23.708;2023-04-23T11:12:04;8.27;;;5.40;;
80215;SDS011;69532;37.974;23.708;2023-04-23T11:17:15;9.45;;;7.28;;
80215;SDS011;69532;37.974;23.708;2023-04-23T11:20:05;8.25;;;5.47;;
80215;SDS011;69532;37.974;23.708;2023-04-23T11:22:34;8.10;;;5.68;;
80215;SDS011;69532;37.974;23.708;2023-04-23T11:25:00;11.15;;;6.07;;
80215;SDS011;69532;37.974;23.708;2023-04-23T11:27:26;7.85;;;5.70;;
80215;SDS011;69532;37.974;23.708;2023-04-23T11:29:55;8.07;;;5.95;;
80215;SDS011;69532;37.974;23.708;2023-04-23T11:32:22;8.15;;;5.65;;
80215;SDS011;69532;37.974;23.708;2023-04-23T11:34:48;9.00;;;5.72;;
80215;SDS011;69532;37.974;23.708;2023-04-23T11:37:15;7.20;;;4.90;;
80215;SDS011;69532;37.974;23.708;2023-04-23T11:39:45;6.95;;;4.60;;
80215;SDS011;69532;37.974;23.708;2023-04-23T11:42:15;8.50;;;5.45;;
80215;SDS011;69532;37.974;23.708;2023-04-23T11:44:44;7.72;;;5.82;;
80215;SDS011;69532;37.974;23.708;2023-04-23T11:47:12;7.78;;;5.03;;
80215;SDS011;69532;37.974;23.708;2023-04-23T11:49:40;8.40;;;5.63;;
80215;SDS011;69532;37.974;23.708;2023-04-23T11:52:09;7.85;;;4.75;;
80215;SDS011;69532;37.974;23.708;2023-04-23T11:54:38;7.45;;;5.32;;
80215;SDS011;69532;37.974;23.708;2023-04-23T11:57:05;7.50;;;5.40;;
80215;SDS011;69532;37.974;23.708;2023-04-23T11:59:31;8.20;;;5.30;;
80215;SDS011;69532;37.974;23.708;2023-04-23T12:01:57;7.70;;;5.15;;
80215;SDS011;69532;37.974;23.708;2023-04-23T12:04:28;7.72;;;5.10;;
80215;SDS011;69532;37.974;23.708;2023-04-23T12:06:55;7.32;;;4.82;;
80215;SDS011;69532;37.974;23.708;2023-04-23T12:09:23;7.13;;;5.32;;
80215;SDS011;69532;37.974;23.708;2023-04-23T12:11:51;7.65;;;5.30;;
80215;SDS011;69532;37.974;23.708;2023-04-23T12:14:17;8.75;;;5.40;;
80215;SDS011;69532;37.974;23.708;2023-04-23T12:16:52;8.93;;;5.22;;
80215;SDS011;69532;37.974;23.708;2023-04-23T12:19:19;7.45;;;5.05;;
80215;SDS011;69532;37.974;23.708;2023-04-23T12:21:50;7.10;;;4.60;;
80215;SDS011;69532;37.974;23.708;2023-04-23T12:24:18;8.32;;;5.35;;
80215;SDS011;69532;37.974;23.708;2023-04-23T12:26:49;8.90;;;4.93;;
80215;SDS011;69532;37.974;23.708;2023-04-23T12:29:18;7.43;;;5.22;;
80215;SDS011;69532;37.974;23.708;2023-04-23T12:31:46;7.20;;;4.70;;
80215;SDS011;69532;37.974;23.708;2023-04-23T12:34:13;7.90;;;4.90;;
80215;SDS011;69532;37.974;23.708;2023-04-23T12:36:51;8.18;;;5.25;;
80215;SDS011;69532;37.974;23.708;2023-04-23T12:41:50;6.97;;;5.00;;
80215;SDS011;69532;37.974;23.708;2023-04-23T12:44:20;7.90;;;5.13;;
80215;SDS011;69532;37.974;23.708;2023-04-23T12:46:56;6.68;;;4.95;;
80215;SDS011;69532;37.974;23.708;2023-04-23T12:49:24;7.82;;;4.47;;
80215;SDS011;69532;37.974;23.708;2023-04-23T12:51:51;7.50;;;4.85;;
80215;SDS011;69532;37.974;23.708;2023-04-23T12:54:21;7.90;;;4.70;;
80215;SDS011;69532;37.974;23.708;2023-04-23T12:57:03;6.82;;;4.35;;
80215;SDS011;69532;37.974;23.708;2023-04-23T12:59:35;6.95;;;4.45;;
80215;SDS011;69532;37.974;23.708;2023-04-23T13:02:01;6.82;;;4.38;;
80215;SDS011;69532;37.974;23.708;2023-04-23T13:04:28;7.60;;;4.70;;
80215;SDS011;69532;37.974;23.708;2023-04-23T13:06:56;7.28;;;4.82;;
80215;SDS011;69532;37.974;23.708;2023-04-23T13:09:22;6.57;;;4.68;;
80215;SDS011;69532;37.974;23.708;2023-04-23T13:11:49;6.80;;;4.85;;
80215;SDS011;69532;37.974;23.708;2023-04-23T13:14:15;8.05;;;4.95;;
80215;SDS011;69532;37.974;23.708;2023-04-23T13:16:42;7.07;;;4.68;;
80215;SDS011;69532;37.974;23.708;2023-04-23T13:19:09;7.78;;;4.85;;
80215;SDS011;69532;37.974;23.708;2023-04-23T13:21:36;6.82;;;4.40;;
80215;SDS011;69532;37.974;23.708;2023-04-23T13:24:02;7.55;;;4.88;;
80215;SDS011;69532;37.974;23.708;2023-04-23T13:26:28;7.35;;;4.82;;
80215;SDS011;69532;37.974;23.708;2023-04-23T13:28:57;6.75;;;4.45;;
80215;SDS011;69532;37.974;23.708;2023-04-23T13:31:23;8.32;;;4.78;;
80215;SDS011;69532;37.974;23.708;2023-04-23T13:33:49;6.78;;;4.80;;
80215;SDS011;69532;37.974;23.708;2023-04-23T13:36:14;7.32;;;4.78;;
80215;SDS011;69532;37.974;23.708;2023-04-23T13:38:40;6.00;;;4.22;;
80215;SDS011;69532;37.974;23.708;2023-04-23T13:41:06;7.00;;;4.68;;
80215;SDS011;69532;37.974;23.708;2023-04-23T13:43:32;7.10;;;4.95;;
80215;SDS011;69532;37.974;23.708;2023-04-23T13:45:57;7.05;;;4.93;;
80215;SDS011;69532;37.974;23.708;2023-04-23T13:48:25;7.05;;;4.70;;
80215;SDS011;69532;37.974;23.708;2023-04-23T13:50:58;7.85;;;5.30;;
80215;SDS011;69532;37.974;23.708;2023-04-23T13:53:26;6.93;;;4.88;;
80215;SDS011;69532;37.974;23.708;2023-04-23T13:55:53;7.93;;;4.88;;
80215;SDS011;69532;37.974;23.708;2023-04-23T13:58:20;6.93;;;4.75;;
80215;SDS011;69532;37.974;23.708;2023-04-23T14:00:46;6.40;;;4.70;;
80215;SDS011;69532;37.974;23.708;2023-04-23T14:03:12;7.20;;;4.53;;
80215;SDS011;69532;37.974;23.708;2023-04-23T14:05:37;6.63;;;4.63;;
80215;SDS011;69532;37.974;23.708;2023-04-23T14:08:03;6.38;;;4.57;;
80215;SDS011;69532;37.974;23.708;2023-04-23T14:10:29;7.68;;;4.97;;
80215;SDS011;69532;37.974;23.708;2023-04-23T14:12:55;7.28;;;4.70;;
80215;SDS011;69532;37.974;23.708;2023-04-23T14:15:21;6.38;;;4.38;;
80215;SDS011;69532;37.974;23.708;2023-04-23T14:17:47;7.15;;;4.70;;
80215;SDS011;69532;37.974;23.708;2023-04-23T14:20:13;6.95;;;4.55;;
80215;SDS011;69532;37.974;23.708;2023-04-23T14:22:40;6.53;;;4.75;;
80215;SDS011;69532;37.974;23.708;2023-04-23T14:25:13;6.75;;;4.55;;
80215;SDS011;69532;37.974;23.708;2023-04-23T14:27:49;6.65;;;5.00;;
80215;SDS011;69532;37.974;23.708;2023-04-23T14:30:17;7.15;;;4.70;;
80215;SDS011;69532;37.974;23.708;2023-04-23T14:32:44;6.95;;;4.43;;
80215;SDS011;69532;37.974;23.708;2023-04-23T14:35:12;8.10;;;4.60;;
80215;SDS011;69532;37.974;23.708;2023-04-23T14:37:38;7.80;;;4.93;;
80215;SDS011;69532;37.974;23.708;2023-04-23T14:40:09;8.43;;;5.22;;
80215;SDS011;69532;37.974;23.708;2023-04-23T14:42:43;7.72;;;4.57;;
80215;SDS011;69532;37.974;23.708;2023-04-23T14:45:09;6.43;;;4.43;;